Wednesday, November 14, 2018, 8:59 PM EST
Back to Local

KBGR, Bangor Int'l Airport

Location: Bangor, ME, United States Lat: 44.8
Local Time: 8:59 PM EST ( 1:59 GMT) Lon: -68.817
Time Zone: US/Eastern Elev: 193 ft

Show me the last for .
Show Decoded

2018-11-14 19:53 METAR KBGR 150053Z 30010G17KT 10SM CLR M08/M16 A3038 RMK AO2 SLP293 T10781156 =
2018-11-14 18:53 METAR KBGR 142353Z 31009G19KT 10SM CLR M08/M16 A3036 RMK AO2 SLP286 T10781156
                 11050 21078 51044 =
2018-11-14 17:53 METAR KBGR 142253Z 30012G23KT 10SM CLR M08/M16 A3034 RMK AO2 SLP277 T10781161 =
2018-11-14 16:53 METAR KBGR 142153Z 29016G25KT 10SM FEW060 M07/M17 A3029 RMK AO2 PK WND
                 29029/2107 SLP260 T10721167 =
2018-11-14 15:53 METAR KBGR 142053Z 30016G26KT 10SM FEW055 M07/M18 A3023 RMK AO2 PK WND
                 32033/2019 SLP241 T10671178 53028 =
2018-11-14 14:53 METAR KBGR 141953Z 29014G28KT 10SM SCT055 M06/M18 A3020 RMK AO2 PK WND
                 30031/1858 SLP230 T10611183 =
2018-11-14 13:53 METAR KBGR 141853Z 30019G28KT 10SM SCT050 M06/M18 A3016 RMK AO2 PK WND
                 31032/1826 SLP218 T10611183 =
2018-11-14 12:53 METAR KBGR 141753Z 30017G26KT 10SM SCT050 M05/M17 A3015 RMK AO2 PK WND
                 32034/1708 SLP211 T10501172 11050 21072 53013 =
2018-11-14 11:53 METAR KBGR 141653Z 29014G30KT 10SM SCT050 M06/M17 A3012 RMK AO2 PK WND
                 30031/1556 SLP204 T10561172 =
2018-11-14 10:53 METAR KBGR 141553Z 30018G29KT 10SM SCT050 M06/M17 A3012 RMK AO2 PK WND
                 31032/1535 SLP201 T10611172 =
2018-11-14 09:53 METAR KBGR 141453Z 28014G23KT 190V320 10SM FEW048 M06/M17 A3011 RMK AO2 PK WND
                 32037/1420 SLP198 T10611167 51043 =
2018-11-14 08:53 METAR KBGR 141353Z 28017G29KT 10SM FEW040 M07/M17 A3007 RMK AO2 PK WND
                 31030/1330 SLP187 T10721172 =
2018-11-14 07:53 METAR KBGR 141253Z 30014G23KT 10SM FEW030 FEW150 M07/M17 A3005 RMK AO2 PK WND
                 29032/1219 PRESRR SLP180 T10721172 $ =
2018-11-14 06:53 METAR KBGR 141153Z 29011G26KT 10SM FEW030 FEW160 M07/M16 A2998 RMK AO2 PK WND
                 29030/1109 SLP156 70093 T10671161 10006 21067 53030 $ =
2018-11-14 05:53 METAR KBGR 141053Z 29018G29KT 10SM FEW040 FEW150 M06/M16 A2995 RMK AO2 PK WND
                 27031/0955 SLP144 T10611156 $ =
2018-11-14 04:53 METAR KBGR 140953Z 28014G21KT 10SM CLR M06/M15 A2992 RMK AO2 SLP136 T10561150 $
                 =
2018-11-14 03:53 METAR KBGR 140853Z 30014G22KT 10SM CLR M05/M13 A2989 RMK AO2 SLP125 T10501133
                 51047 $ =
2018-11-14 02:53 METAR KBGR 140753Z 29012G22KT 10SM FEW140 M04/M11 A2986 RMK AO2 PK WND
                 30030/0700 SLP113 T10391111 $ =
2018-11-14 01:53 METAR KBGR 140653Z 31017G27KT 10SM FEW035 SCT140 M02/M08 A2982 RMK AO2 PK WND
                 31032/0613 SLP100 T10171078 =
2018-11-14 00:53 METAR KBGR 140553Z 30009G18KT 10SM FEW038 OVC140 01/M04 A2975 RMK AO2 SLP077
                 60001 I6000 T00061044 10028 20006 53022 =
2018-11-13 23:53 METAR KBGR 140453Z 30012G28KT 10SM SCT038 OVC140 02/M03 A2972 RMK AO2 PK WND
                 28032/0437 SLP067 T00171028 400501011 =
2018-11-13 22:53 METAR KBGR 140353Z 25004KT 10SM FEW050 OVC120 02/00 A2970 RMK AO2 SLP059
                 T00220000 =
2018-11-13 21:53 METAR KBGR 140253Z 28005KT 10SM FEW050 OVC120 02/01 A2969 RMK AO2 SLP055 60001
                 I3000 T00170006 51013 =

Support USWX by starting your Amazon purchase here.